Time;durP1;ratioP1;P1;durP2;ratioP2;P2;SDS_P1;SDS_P2;PMS_P1;PMS_P2;Temp;Humidity;BMP_temperature;BMP_pressure;BME280_temperature;BME280_humidity;BME280_pressure;Samples;Min_cycle;Max_cycle;Signal;HPM_P1;HPM_P2
2022/09/10 00:01:27;;;;;;;1.88;0.70;;;;;;;18.08;79.26;98505.50;4951626;28;102976;-59
2022/09/10 00:03:57;;;;;;;1.73;0.90;;;;;;;17.31;83.47;98502.97;4951544;28;104423;-60
2022/09/10 00:06:26;;;;;;;2.03;0.80;;;;;;;17.51;83.08;98498.22;4947562;28;103196;-60
2022/09/10 00:08:56;;;;;;;1.77;0.80;;;;;;;17.70;81.53;98493.53;4951496;28;103709;-60
2022/09/10 00:11:24;;;;;;;1.75;0.60;;;;;;;17.91;79.91;98491.25;4949117;28;102736;-60
2022/09/10 00:13:56;;;;;;;1.35;0.60;;;;;;;18.06;78.83;98493.31;4947916;28;104120;-60
2022/09/10 00:16:24;;;;;;;2.20;0.98;;;;;;;17.74;81.27;98481.50;4947371;28;103317;-60
2022/09/10 00:18:52;;;;;;;2.90;0.77;;;;;;;17.82;80.98;98480.72;4946095;28;102710;-60
2022/09/10 00:21:21;;;;;;;1.40;0.70;;;;;;;17.91;80.27;98482.38;4952506;28;103147;-61
2022/09/10 00:23:49;;;;;;;1.80;0.70;;;;;;;17.97;79.65;98484.41;4947378;28;103755;-61
2022/09/10 00:26:20;;;;;;;0.90;0.60;;;;;;;17.98;80.42;98482.59;4951339;28;104656;-61
2022/09/10 00:28:49;;;;;;;2.20;0.80;;;;;;;18.05;79.43;98481.75;4951023;28;102720;-61
2022/09/10 00:31:18;;;;;;;1.33;0.70;;;;;;;18.09;79.42;98485.81;4951014;28;102913;-61
2022/09/10 00:33:46;;;;;;;1.77;0.80;;;;;;;18.10;80.00;98481.28;4956627;28;103327;-60
2022/09/10 00:36:16;;;;;;;0.90;0.70;;;;;;;18.17;79.49;98482.31;4947932;28;103128;-60
2022/09/10 00:38:45;;;;;;;1.23;0.60;;;;;;;18.21;79.61;98478.31;4943826;28;102761;-60
2022/09/10 00:41:14;;;;;;;1.60;0.85;;;;;;;18.28;79.04;98482.84;4951016;28;102921;-60
2022/09/10 00:43:52;;;;;;;1.42;0.80;;;;;;;18.32;79.00;98486.03;4950630;28;103450;-61
2022/09/10 00:46:41;;;;;;;2.58;1.08;;;;;;;18.15;80.36;98486.97;4947615;28;103201;-60
2022/09/10 00:49:14;;;;;;;1.20;0.60;;;;;;;18.18;79.89;98484.00;4948024;28;103334;-60
2022/09/10 00:51:43;;;;;;;1.80;0.90;;;;;;;17.80;82.71;98486.19;4949246;28;104007;-60
2022/09/10 00:54:14;;;;;;;0.80;0.60;;;;;;;17.90;82.69;98483.41;4947250;28;103394;-61
2022/09/10 00:56:42;;;;;;;1.05;0.70;;;;;;;17.76;80.73;98492.88;4947223;28;103308;-60
2022/09/10 00:59:13;;;;;;;1.23;0.60;;;;;;;17.58;81.50;98496.63;4954793;28;102883;-60
2022/09/10 01:01:41;;;;;;;0.80;0.70;;;;;;;17.68;81.85;98498.19;4948217;28;103020;-60
2022/09/10 01:04:10;;;;;;;1.67;0.70;;;;;;;17.94;81.00;98490.09;4947890;28;104153;-60
2022/09/10 01:06:40;;;;;;;1.35;0.55;;;;;;;18.11;80.74;98490.97;4955327;28;103399;-60
2022/09/10 01:09:09;;;;;;;1.88;0.90;;;;;;;18.09;80.84;98490.31;4954073;28;102724;-60
2022/09/10 01:12:03;;;;;;;1.05;0.70;;;;;;;18.14;80.74;98482.63;4952908;28;103929;-59
2022/09/10 01:14:54;;;;;;;1.17;0.50;;;;;;;18.21;79.75;98489.84;4951355;28;104133;-60
2022/09/10 01:17:30;;;;;;;0.77;0.60;;;;;;;18.26;79.89;98486.66;4948464;28;103516;-59
2022/09/10 01:20:27;;;;;;;1.50;0.65;;;;;;;18.24;80.28;98489.53;4951414;28;102685;-60
2022/09/10 01:23:19;;;;;;;1.67;0.70;;;;;;;18.27;80.36;98499.88;4952613;28;104448;-59
2022/09/10 01:25:56;;;;;;;1.08;0.90;;;;;;;18.04;80.93;98489.97;4951090;28;103450;-60
2022/09/10 01:28:33;;;;;;;1.07;0.60;;;;;;;17.95;80.89;98479.25;4951327;28;105199;-60
2022/09/10 01:31:10;;;;;;;1.73;0.70;;;;;;;17.91;80.74;98483.22;4951810;28;102797;-60
2022/09/10 01:33:46;;;;;;;1.52;0.80;;;;;;;17.74;82.03;98496.72;4953323;28;103290;-60
2022/09/10 01:36:21;;;;;;;3.47;0.90;;;;;;;17.64;82.27;98507.50;4965992;28;104173;-60
2022/09/10 01:38:50;;;;;;;1.35;0.70;;;;;;;17.40;83.63;98492.16;4951948;28;103224;-59
2022/09/10 01:41:24;;;;;;;1.60;0.70;;;;;;;16.99;85.77;98482.22;4963189;28;102725;-59
2022/09/10 01:43:56;;;;;;;1.80;0.80;;;;;;;17.15;85.13;98484.19;4951722;28;103190;-60
2022/09/10 01:46:40;;;;;;;1.75;0.70;;;;;;;17.23;84.53;98486.91;4953381;28;103420;-59
2022/09/10 01:49:22;;;;;;;0.93;0.50;;;;;;;17.32;83.79;98481.44;4948256;28;103275;-59
2022/09/10 01:52:05;;;;;;;1.58;0.80;;;;;;;17.29;84.89;98486.28;4950937;28;102841;-60
2022/09/10 01:54:46;;;;;;;1.37;0.67;;;;;;;17.42;84.36;98486.66;4948800;28;103027;-59
2022/09/10 01:57:26;;;;;;;1.00;0.65;;;;;;;17.56;83.35;98471.91;4952679;28;103449;-60
2022/09/10 02:00:05;;;;;;;1.10;0.57;;;;;;;17.60;83.06;98474.09;4951276;28;103424;-59
2022/09/10 02:02:44;;;;;;;1.17;0.50;;;;;;;17.68;82.38;98471.47;4938641;28;103319;-60
2022/09/10 02:05:15;;;;;;;1.83;0.50;;;;;;;17.74;82.45;98475.34;4952089;28;102768;-59
2022/09/10 02:07:46;;;;;;;1.33;0.60;;;;;;;17.75;83.24;98480.50;4949790;28;103255;-60
2022/09/10 02:10:15;;;;;;;1.80;0.80;;;;;;;17.71;82.89;98479.13;4949676;28;105449;-59
2022/09/10 02:12:46;;;;;;;1.40;0.50;;;;;;;17.80;82.34;98475.50;4951235;28;102811;-59
2022/09/10 02:15:31;;;;;;;1.42;0.50;;;;;;;17.62;81.67;98482.81;4950907;28;102734;-59
2022/09/10 02:18:11;;;;;;;0.87;0.60;;;;;;;17.76;82.77;98478.69;4943878;28;103493;-59
2022/09/10 02:20:39;;;;;;;0.85;0.60;;;;;;;17.80;82.56;98486.19;4948693;28;103212;-59
2022/09/10 02:23:09;;;;;;;1.27;0.50;;;;;;;17.85;82.77;98478.53;4947818;28;102766;-59
2022/09/10 02:25:37;;;;;;;0.93;0.63;;;;;;;17.78;82.79;98472.19;4952187;28;103039;-60
2022/09/10 02:28:06;;;;;;;2.65;0.82;;;;;;;17.76;82.73;98479.53;4951138;28;103993;-59
2022/09/10 02:30:35;;;;;;;1.33;0.73;;;;;;;17.84;83.07;98476.88;4949605;28;103085;-60
2022/09/10 02:33:02;;;;;;;0.90;0.50;;;;;;;17.91;82.08;98477.03;4950389;28;103053;-60
2022/09/10 02:35:30;;;;;;;1.63;0.60;;;;;;;17.93;81.86;98473.25;4952173;28;104021;-59
2022/09/10 02:37:58;;;;;;;1.00;0.50;;;;;;;17.98;81.96;98477.25;4948388;28;103298;-61
2022/09/10 02:40:30;;;;;;;1.60;0.68;;;;;;;17.89;82.27;98469.19;4944891;28;104390;-60
2022/09/10 02:42:58;;;;;;;1.20;0.60;;;;;;;17.83;82.14;98479.69;4949150;28;102865;-60
2022/09/10 02:45:28;;;;;;;1.42;0.73;;;;;;;17.77;82.97;98481.19;4950172;28;104180;-60
2022/09/10 02:47:59;;;;;;;2.30;0.70;;;;;;;17.76;83.06;98468.84;4947977;28;104124;-60
2022/09/10 02:50:28;;;;;;;2.13;0.90;;;;;;;17.64;82.57;98470.13;4946815;28;103448;-60
2022/09/10 02:52:56;;;;;;;1.40;0.70;;;;;;;17.54;83.01;98468.56;4950680;28;102645;-60
2022/09/10 02:55:27;;;;;;;1.25;0.60;;;;;;;17.73;83.01;98469.16;4950895;28;103123;-60
2022/09/10 02:57:55;;;;;;;0.95;0.55;;;;;;;17.82;82.50;98465.50;4945542;28;104266;-60
2022/09/10 03:00:23;;;;;;;1.73;0.60;;;;;;;17.88;81.94;98470.19;4949631;28;103228;-60
2022/09/10 03:02:51;;;;;;;1.30;0.63;;;;;;;17.96;81.36;98469.41;4949766;28;102705;-60
2022/09/10 03:05:20;;;;;;;1.20;0.52;;;;;;;17.99;81.28;98471.75;4949254;28;102960;-59
2022/09/10 03:07:48;;;;;;;0.90;0.60;;;;;;;18.04;81.57;98465.91;4948702;28;103238;-60
2022/09/10 03:10:17;;;;;;;1.75;0.70;;;;;;;17.82;83.29;98462.81;4941769;28;103490;-59
2022/09/10 03:12:46;;;;;;;1.60;0.70;;;;;;;17.92;83.57;98462.69;4949088;28;103265;-60
2022/09/10 03:15:19;;;;;;;1.27;0.73;;;;;;;17.92;83.65;98460.88;4960012;28;104497;-59
2022/09/10 03:17:47;;;;;;;3.47;1.00;;;;;;;17.45;85.98;98462.31;4947222;28;103397;-59
2022/09/10 03:20:17;;;;;;;1.80;0.70;;;;;;;17.70;85.70;98458.78;4959577;28;103212;-59
2022/09/10 03:22:46;;;;;;;1.33;0.88;;;;;;;17.75;85.06;98459.13;4950007;28;102761;-59
2022/09/10 03:25:16;;;;;;;3.20;0.70;;;;;;;17.81;84.52;98450.47;4949820;28;103064;-60
2022/09/10 03:27:43;;;;;;;1.08;0.80;;;;;;;17.82;84.09;98451.31;4943324;28;103450;-60
2022/09/10 03:30:13;;;;;;;1.75;0.70;;;;;;;17.78;84.40;98461.50;4942180;28;105208;-60
2022/09/10 03:32:41;;;;;;;1.00;0.70;;;;;;;17.88;83.27;98462.19;4957950;28;103003;-59
2022/09/10 03:35:09;;;;;;;2.35;0.85;;;;;;;17.83;83.49;98459.16;4948625;28;103224;-59
2022/09/10 03:37:38;;;;;;;1.77;0.90;;;;;;;17.88;83.38;98464.84;4943306;28;104138;-60
2022/09/10 03:40:09;;;;;;;1.77;0.80;;;;;;;17.92;82.49;98458.19;4944155;28;103348;-61
2022/09/10 03:42:37;;;;;;;0.90;0.60;;;;;;;17.96;82.47;98464.06;4947289;28;102836;-59
2022/09/10 03:45:06;;;;;;;0.80;0.60;;;;;;;18.02;82.41;98459.91;4945423;28;104292;-60
2022/09/10 03:47:35;;;;;;;1.92;0.70;;;;;;;17.98;82.29;98456.72;4959295;28;105177;-59
2022/09/10 03:50:04;;;;;;;1.00;0.60;;;;;;;17.91;82.79;98455.66;4950197;28;103238;-60
2022/09/10 03:52:32;;;;;;;0.88;0.60;;;;;;;17.93;82.65;98457.22;4959890;28;102806;-60
2022/09/10 03:55:01;;;;;;;1.15;0.70;;;;;;;17.94;82.42;98455.34;4944771;28;103992;-60
2022/09/10 03:57:30;;;;;;;0.93;0.60;;;;;;;17.98;82.29;98458.53;4943225;28;104139;-59
2022/09/10 03:59:58;;;;;;;1.70;0.65;;;;;;;18.00;82.07;98459.19;4946510;28;103409;-60
2022/09/10 04:02:26;;;;;;;1.85;0.70;;;;;;;17.94;82.14;98464.19;4945915;28;103952;-60
2022/09/10 04:04:54;;;;;;;1.20;0.55;;;;;;;18.00;81.88;98451.19;4949203;28;103652;-60
2022/09/10 04:07:22;;;;;;;0.55;0.55;;;;;;;17.98;81.66;98459.38;4947848;28;103932;-60
2022/09/10 04:09:50;;;;;;;0.70;0.50;;;;;;;18.04;82.31;98444.53;4946144;28;103568;-60
2022/09/10 04:12:18;;;;;;;0.82;0.80;;;;;;;17.85;83.19;98457.16;4950223;28;103145;-60
2022/09/10 04:14:50;;;;;;;1.83;0.83;;;;;;;17.83;83.65;98451.16;4941606;28;102915;-60
2022/09/10 04:17:18;;;;;;;1.25;0.73;;;;;;;17.92;83.07;98449.34;4948499;28;104073;-60
2022/09/10 04:19:46;;;;;;;2.28;1.00;;;;;;;17.85;83.00;98448.31;4944136;28;102934;-60
2022/09/10 04:22:14;;;;;;;0.67;0.63;;;;;;;17.69;84.07;98451.75;4949292;28;102966;-60
2022/09/10 04:24:43;;;;;;;1.50;0.80;;;;;;;17.63;83.58;98459.56;4949016;28;104088;-60
2022/09/10 04:27:11;;;;;;;1.20;0.70;;;;;;;17.56;84.45;98456.72;4945442;28;103303;-59
2022/09/10 04:29:41;;;;;;;1.25;0.70;;;;;;;17.65;84.18;98455.78;4949361;28;104079;-60
2022/09/10 04:32:11;;;;;;;0.73;0.60;;;;;;;17.67;84.46;98459.09;4949636;28;102706;-59
2022/09/10 04:34:38;;;;;;;1.15;0.60;;;;;;;17.64;84.02;98456.75;4947195;28;102761;-61
2022/09/10 04:37:06;;;;;;;0.90;0.63;;;;;;;17.78;83.09;98461.50;4942184;28;103953;-61
2022/09/10 04:39:34;;;;;;;1.40;0.70;;;;;;;17.59;83.71;98464.41;4947211;28;103482;-60
2022/09/10 04:42:05;;;;;;;1.17;0.70;;;;;;;17.61;84.13;98465.09;4947663;28;102754;-59
2022/09/10 04:44:33;;;;;;;0.87;0.53;;;;;;;17.63;84.58;98468.44;4949418;28;103312;-59
2022/09/10 04:47:02;;;;;;;1.40;0.70;;;;;;;17.64;83.62;98477.28;4946136;28;103889;-59
2022/09/10 04:49:31;;;;;;;1.15;0.80;;;;;;;17.37;84.73;98470.28;4948119;28;103303;-60
2022/09/10 04:51:59;;;;;;;1.35;0.80;;;;;;;17.50;84.89;98472.50;4947165;28;102955;-60
2022/09/10 04:54:29;;;;;;;1.30;0.70;;;;;;;17.53;84.55;98467.69;4948063;28;102985;-60
2022/09/10 04:56:58;;;;;;;1.20;0.52;;;;;;;17.47;85.18;98473.66;4949124;28;103322;-60
2022/09/10 04:59:26;;;;;;;1.85;0.80;;;;;;;17.35;85.32;98469.59;4945056;28;105114;-59
2022/09/10 05:01:54;;;;;;;1.17;0.90;;;;;;;17.52;84.76;98479.38;4946787;28;103512;-60
2022/09/10 05:04:22;;;;;;;1.60;0.70;;;;;;;17.61;84.33;98483.78;4942278;28;102858;-60
2022/09/10 05:06:52;;;;;;;0.88;0.60;;;;;;;17.65;84.25;98487.81;4944910;28;105448;-60
2022/09/10 05:09:20;;;;;;;1.80;0.80;;;;;;;17.52;84.79;98487.38;4946962;28;103785;-60
2022/09/10 05:11:49;;;;;;;1.25;0.77;;;;;;;17.56;84.44;98475.44;4964166;28;103143;-60
2022/09/10 05:14:20;;;;;;;0.77;0.60;;;;;;;17.57;84.62;98478.94;4948390;28;103558;-60
2022/09/10 05:16:47;;;;;;;1.02;0.57;;;;;;;17.65;84.42;98486.97;4947808;28;103276;-60
2022/09/10 05:19:17;;;;;;;1.30;0.60;;;;;;;17.76;84.77;98490.22;4946506;28;103347;-60
2022/09/10 05:21:52;;;;;;;2.30;0.60;;;;;;;17.84;83.95;98484.91;4944245;28;103097;-60
2022/09/10 05:24:20;;;;;;;1.08;0.63;;;;;;;17.88;83.55;98488.91;4948100;28;103941;-61
2022/09/10 05:26:48;;;;;;;1.63;0.60;;;;;;;17.84;83.37;98487.56;4940771;28;103371;-59
2022/09/10 05:29:17;;;;;;;0.68;0.60;;;;;;;17.90;83.45;98489.59;4937944;28;103249;-60
2022/09/10 05:31:47;;;;;;;1.03;0.70;;;;;;;17.93;83.22;98483.94;4947248;28;102964;-60
2022/09/10 05:34:15;;;;;;;1.15;0.80;;;;;;;17.85;83.64;98485.75;4944888;28;103251;-60
2022/09/10 05:36:43;;;;;;;1.00;0.60;;;;;;;17.88;83.85;98488.09;4948112;28;105493;-60
2022/09/10 05:39:14;;;;;;;1.50;0.60;;;;;;;17.89;83.65;98487.91;4944648;28;103723;-59
2022/09/10 05:41:43;;;;;;;1.10;0.60;;;;;;;17.95;83.29;98479.25;4948543;28;103072;-60
2022/09/10 05:44:10;;;;;;;0.73;0.57;;;;;;;18.03;82.68;98488.28;4952750;28;102739;-60
2022/09/10 05:46:39;;;;;;;0.70;0.55;;;;;;;18.09;82.53;98482.28;4952225;28;103199;-59
2022/09/10 05:49:12;;;;;;;0.98;0.60;;;;;;;18.14;81.79;98478.13;4953246;28;103357;-60
2022/09/10 05:51:41;;;;;;;1.70;0.80;;;;;;;18.11;81.74;98477.59;4943470;28;103227;-60
2022/09/10 05:54:10;;;;;;;0.63;0.60;;;;;;;17.95;83.09;98484.59;4950934;28;103432;-60
2022/09/10 05:56:39;;;;;;;1.17;0.70;;;;;;;17.95;82.09;98479.25;4951110;28;104138;-59
2022/09/10 05:59:09;;;;;;;0.68;0.50;;;;;;;18.04;82.04;98481.94;4951270;28;103474;-59
2022/09/10 06:01:38;;;;;;;1.38;0.60;;;;;;;17.95;81.98;98481.91;4951498;28;102873;-59
2022/09/10 06:04:06;;;;;;;0.98;0.60;;;;;;;17.81;82.53;98484.38;4947118;28;103307;-60
2022/09/10 06:06:34;;;;;;;1.02;0.65;;;;;;;17.72;82.63;98490.66;4948949;28;104346;-60
2022/09/10 06:09:07;;;;;;;0.98;0.68;;;;;;;17.65;82.91;98498.50;4949152;28;103420;-60
2022/09/10 06:11:47;;;;;;;0.68;0.50;;;;;;;17.65;83.84;98498.50;4950945;28;102940;-60
2022/09/10 06:14:19;;;;;;;1.20;0.50;;;;;;;17.90;82.47;98502.97;4951575;28;104225;-60
2022/09/10 06:16:48;;;;;;;1.00;0.60;;;;;;;17.95;82.24;98500.63;4949394;28;104128;-61
2022/09/10 06:19:16;;;;;;;0.80;0.50;;;;;;;18.04;81.75;98506.84;4949288;28;103211;-61
2022/09/10 06:21:44;;;;;;;1.42;0.80;;;;;;;17.91;82.94;98507.28;4949241;28;102746;-61
2022/09/10 06:24:13;;;;;;;0.90;0.53;;;;;;;17.94;82.56;98508.78;4951409;28;103123;-61
2022/09/10 06:26:42;;;;;;;0.98;0.65;;;;;;;17.86;82.90;98504.25;4951747;28;103927;-61
2022/09/10 06:29:14;;;;;;;1.50;0.70;;;;;;;18.00;83.17;98504.63;4950162;28;103159;-61
2022/09/10 06:31:42;;;;;;;1.15;0.60;;;;;;;17.79;85.25;98513.09;4968830;28;104593;-61
2022/09/10 06:34:11;;;;;;;0.70;0.50;;;;;;;17.93;84.49;98507.13;4951601;28;103261;-61
2022/09/10 06:36:40;;;;;;;0.60;0.50;;;;;;;18.11;83.61;98509.69;4948577;28;103941;-61
2022/09/10 06:39:08;;;;;;;0.70;0.70;;;;;;;18.21;83.73;98510.41;4947297;28;103335;-61
2022/09/10 06:41:46;;;;;;;0.80;0.50;;;;;;;18.32;83.55;98507.41;4949035;28;103195;-61
2022/09/10 06:44:36;;;;;;;1.47;0.67;;;;;;;18.43;82.31;98515.97;4952144;28;103221;-61
2022/09/10 06:47:14;;;;;;;1.30;0.77;;;;;;;18.35;82.49;98518.63;4952647;28;103341;-60
2022/09/10 06:50:04;;;;;;;1.70;0.70;;;;;;;18.35;83.30;98518.63;4955294;28;103465;-62
2022/09/10 06:52:36;;;;;;;2.42;1.10;;;;;;;18.38;82.00;98520.97;4950762;28;102803;-61
2022/09/10 06:55:07;;;;;;;0.88;0.60;;;;;;;18.56;82.48;98520.84;4946842;28;102841;-62
2022/09/10 06:57:38;;;;;;;1.10;0.70;;;;;;;18.69;81.96;98529.25;4945681;28;105449;-63
2022/09/10 07:00:10;;;;;;;0.93;0.70;;;;;;;18.56;82.26;98523.53;4948547;28;103303;-62
2022/09/10 07:02:39;;;;;;;1.17;0.90;;;;;;;18.30;81.75;98530.81;4951598;28;102868;-62
2022/09/10 07:05:09;;;;;;;1.35;0.70;;;;;;;18.63;82.98;98529.91;4951762;28;103827;-62
2022/09/10 07:07:38;;;;;;;2.00;0.80;;;;;;;18.77;79.53;98534.59;4951461;28;105146;-62
2022/09/10 07:10:08;;;;;;;1.00;0.85;;;;;;;18.79;79.26;98537.09;4949936;28;103167;-62
2022/09/10 07:12:36;;;;;;;1.40;0.90;;;;;;;18.96;79.55;98534.28;4950847;28;102852;-62
2022/09/10 07:15:07;;;;;;;1.17;0.70;;;;;;;19.10;78.70;98533.59;4951862;28;102787;-62
2022/09/10 07:17:37;;;;;;;0.83;0.70;;;;;;;19.09;79.08;98531.91;4951237;28;103242;-62
2022/09/10 07:20:07;;;;;;;0.87;0.60;;;;;;;18.86;78.18;98549.63;4950303;28;105758;-63
2022/09/10 07:22:42;;;;;;;2.75;0.73;;;;;;;18.87;79.32;98556.69;4953399;28;102872;-63
2022/09/10 07:25:12;;;;;;;1.40;0.60;;;;;;;18.11;80.93;98555.13;4950717;28;103011;-62
2022/09/10 07:27:52;;;;;;;1.00;0.60;;;;;;;18.67;80.24;98555.31;4946958;28;105768;-61
2022/09/10 07:30:22;;;;;;;2.05;0.70;;;;;;;18.80;79.93;98566.38;4950647;28;103198;-61
2022/09/10 07:32:53;;;;;;;0.88;0.60;;;;;;;18.86;78.43;98571.03;4961185;28;103321;-61
2022/09/10 07:35:25;;;;;;;1.48;0.88;;;;;;;18.82;78.59;98563.53;4947883;28;103043;-62
2022/09/10 07:37:53;;;;;;;1.02;0.50;;;;;;;18.88;79.45;98577.09;4947892;28;103470;-62
2022/09/10 07:40:22;;;;;;;0.75;0.50;;;;;;;19.16;78.61;98568.72;4966457;28;103275;-60
2022/09/10 07:42:51;;;;;;;1.88;0.70;;;;;;;19.09;79.24;98566.72;4952397;28;102832;-61
2022/09/10 07:45:20;;;;;;;0.65;0.50;;;;;;;19.06;78.45;98575.09;4925188;28;103156;-61
2022/09/10 07:47:48;;;;;;;1.02;0.73;;;;;;;18.90;77.91;98572.41;4944235;28;103510;-61
2022/09/10 07:50:19;;;;;;;1.25;0.70;;;;;;;19.00;77.87;98580.28;4942979;28;105329;-61
2022/09/10 07:52:51;;;;;;;1.10;0.70;;;;;;;18.74;77.47;98583.09;4946272;28;102867;-60
2022/09/10 07:55:22;;;;;;;1.53;0.80;;;;;;;19.07;78.14;98582.13;4946768;28;104410;-60
2022/09/10 07:57:53;;;;;;;2.20;0.70;;;;;;;19.10;77.43;98578.28;4937993;28;103563;-61
2022/09/10 08:00:33;;;;;;;1.95;0.68;;;;;;;19.23;77.64;98577.78;4944480;28;103297;-61
2022/09/10 08:03:06;;;;;;;1.40;0.80;;;;;;;18.83;78.08;98591.97;4907175;28;102817;-61
2022/09/10 08:05:38;;;;;;;0.98;0.70;;;;;;;19.12;78.23;98592.31;4928676;28;102864;-61
2022/09/10 08:08:06;;;;;;;0.95;0.50;;;;;;;18.78;77.64;98589.78;4944352;28;103335;-61
2022/09/10 08:10:35;;;;;;;1.10;0.70;;;;;;;19.31;76.75;98589.28;4941317;28;104152;-62
2022/09/10 08:13:03;;;;;;;2.00;0.70;;;;;;;19.53;75.18;98598.53;4945344;28;103690;-62
2022/09/10 08:15:30;;;;;;;1.52;1.00;;;;;;;19.51;75.44;98593.34;4946186;28;103208;-62
2022/09/10 08:18:01;;;;;;;1.40;0.70;;;;;;;19.60;75.38;98596.84;4942924;28;104108;-61
2022/09/10 08:20:32;;;;;;;1.13;1.02;;;;;;;19.64;77.43;98598.19;4942813;28;103960;-61
2022/09/10 08:23:02;;;;;;;2.00;0.70;;;;;;;19.90;75.87;98598.78;4929278;28;103314;-61
2022/09/10 08:25:32;;;;;;;1.40;0.60;;;;;;;20.94;72.74;98588.56;4946207;28;102909;-61
2022/09/10 08:28:05;;;;;;;0.97;0.60;;;;;;;21.91;69.34;98577.00;4947295;28;103282;-63
2022/09/10 08:30:32;;;;;;;1.77;0.80;;;;;;;21.73;68.04;98577.31;4947922;28;103660;-62
2022/09/10 08:33:01;;;;;;;3.43;0.80;;;;;;;21.46;67.43;98587.84;4943334;28;103492;-62
2022/09/10 08:35:29;;;;;;;2.00;0.80;;;;;;;21.08;68.33;98579.75;4945484;28;104342;-62
2022/09/10 08:37:57;;;;;;;1.85;0.60;;;;;;;21.30;69.08;98589.66;4945810;28;103351;-62
2022/09/10 08:40:27;;;;;;;1.90;0.60;;;;;;;20.78;69.16;98586.00;4948095;28;103437;-63
2022/09/10 08:42:57;;;;;;;2.97;0.80;;;;;;;20.82;68.67;98592.69;4948486;28;103320;-62
2022/09/10 08:45:31;;;;;;;2.70;0.90;;;;;;;21.07;70.19;98593.34;4949462;28;102968;-62
2022/09/10 08:48:05;;;;;;;1.73;0.80;;;;;;;20.61;67.80;98593.31;4955362;28;104095;-62
2022/09/10 08:50:43;;;;;;;2.60;1.00;;;;;;;20.84;67.11;98598.72;4949818;28;105242;-63
2022/09/10 08:53:25;;;;;;;2.30;1.10;;;;;;;20.17;69.35;98598.38;4948099;28;102959;-62
2022/09/10 08:56:02;;;;;;;1.60;0.70;;;;;;;20.38;68.91;98596.97;4935684;28;103093;-65
2022/09/10 08:58:39;;;;;;;1.73;0.63;;;;;;;20.13;69.64;98594.34;4960415;28;103606;-64
2022/09/10 09:01:15;;;;;;;2.45;0.70;;;;;;;20.85;68.17;98608.44;4947961;28;103309;-64
2022/09/10 09:03:46;;;;;;;2.85;0.80;;;;;;;21.13;66.92;98603.41;4951489;28;102947;-65
2022/09/10 09:06:27;;;;;;;1.40;0.70;;;;;;;21.32;67.61;98601.06;4952866;28;102831;-65
2022/09/10 09:08:57;;;;;;;2.03;0.77;;;;;;;21.39;66.59;98599.31;4953160;28;103604;-63
2022/09/10 09:11:39;;;;;;;2.70;0.80;;;;;;;22.07;65.93;98590.25;4949086;28;103400;-63
2022/09/10 09:14:32;;;;;;;0.83;0.50;;;;;;;22.32;65.39;98597.00;4948988;28;102720;-63
2022/09/10 09:17:27;;;;;;;3.80;0.90;;;;;;;23.30;63.50;98585.69;4955453;28;102827;-63
2022/09/10 09:20:04;;;;;;;3.28;1.00;;;;;;;22.83;62.12;98583.53;4952400;28;104989;-63
2022/09/10 09:22:44;;;;;;;2.13;0.90;;;;;;;22.01;62.68;98593.66;4951884;28;103175;-62
2022/09/10 09:25:22;;;;;;;3.00;0.95;;;;;;;21.76;62.83;98586.84;4952830;28;102773;-63
2022/09/10 09:27:55;;;;;;;3.95;1.10;;;;;;;21.38;63.53;98581.53;4966571;28;102764;-63
2022/09/10 09:30:34;;;;;;;2.78;1.00;;;;;;;21.59;62.36;98598.78;4964777;28;105262;-63
2022/09/10 09:33:13;;;;;;;1.98;0.90;;;;;;;20.90;61.15;98595.31;4949441;28;103290;-62
2022/09/10 09:35:49;;;;;;;3.75;0.75;;;;;;;21.42;62.28;98591.94;4953892;28;102795;-63
2022/09/10 09:38:22;;;;;;;3.58;1.10;;;;;;;21.12;59.88;98597.19;4953538;28;103534;-63
2022/09/10 09:40:56;;;;;;;2.97;1.00;;;;;;;20.87;61.45;98595.66;4950634;28;104258;-63
2022/09/10 09:43:35;;;;;;;2.93;0.90;;;;;;;20.82;60.54;98590.00;4953201;28;103247;-63
2022/09/10 09:46:13;;;;;;;2.50;0.80;;;;;;;20.70;61.67;98602.16;4963201;28;103369;-63
2022/09/10 09:48:46;;;;;;;3.65;1.30;;;;;;;20.72;63.04;98594.75;4963845;28;102738;-63
2022/09/10 09:51:19;;;;;;;5.10;1.05;;;;;;;20.72;62.28;98603.66;4956585;28;103253;-63
2022/09/10 09:53:49;;;;;;;1.57;0.67;;;;;;;20.47;62.52;98606.63;4963240;28;103352;-62
2022/09/10 09:56:44;;;;;;;1.70;0.80;;;;;;;20.70;62.96;98599.47;4952427;28;102856;-63
2022/09/10 09:59:25;;;;;;;3.08;0.90;;;;;;;20.40;63.57;98600.31;4957122;28;102796;-64
2022/09/10 10:01:54;;;;;;;2.42;0.90;;;;;;;19.89;64.75;98602.47;4953674;28;103576;-63
2022/09/10 10:04:25;;;;;;;2.78;1.10;;;;;;;20.51;63.60;98594.56;4953577;28;103005;-63
2022/09/10 10:06:55;;;;;;;2.30;0.80;;;;;;;20.73;63.43;98601.81;4952530;28;102715;-63
2022/09/10 10:09:27;;;;;;;1.60;0.85;;;;;;;20.76;62.73;98604.13;4955646;28;103111;-63
2022/09/10 10:11:57;;;;;;;2.13;0.90;;;;;;;20.35;63.40;98600.00;4956859;28;104053;-62
2022/09/10 10:14:38;;;;;;;2.90;0.90;;;;;;;20.48;64.51;98603.78;4951709;28;102995;-63
2022/09/10 10:17:37;;;;;;;2.33;0.90;;;;;;;19.88;65.86;98611.53;4949161;28;103229;-63
2022/09/10 10:20:12;;;;;;;2.33;0.63;;;;;;;19.57;69.47;98606.06;4891108;28;102969;-62
2022/09/10 10:22:41;;;;;;;3.17;0.80;;;;;;;19.54;70.52;98602.88;4937107;28;103418;-62
2022/09/10 10:25:37;;;;;;;3.87;0.90;;;;;;;19.73;70.35;98613.25;4951818;28;103320;-62
2022/09/10 10:28:14;;;;;;;2.00;0.77;;;;;;;19.71;71.21;98603.69;4966505;28;102855;-63
2022/09/10 10:30:44;;;;;;;2.00;0.73;;;;;;;19.46;71.38;98605.56;4953095;28;102753;-62
2022/09/10 10:33:18;;;;;;;2.33;0.82;;;;;;;19.15;73.14;98609.88;4952423;28;103311;-63
2022/09/10 10:35:50;;;;;;;2.78;1.00;;;;;;;19.23;74.77;98609.91;4952534;28;103242;-62
2022/09/10 10:38:30;;;;;;;1.38;0.70;;;;;;;19.54;76.33;98602.88;4953590;28;102967;-62
2022/09/10 10:41:20;;;;;;;2.10;0.80;;;;;;;19.93;74.18;98603.78;4951824;28;102877;-62
2022/09/10 10:43:58;;;;;;;2.40;0.90;;;;;;;19.72;73.84;98606.22;4948244;28;103821;-62
2022/09/10 10:46:36;;;;;;;1.90;0.80;;;;;;;19.80;75.41;98606.19;4950612;28;103500;-62
2022/09/10 10:49:15;;;;;;;1.63;0.87;;;;;;;19.97;74.80;98591.72;4954877;28;102660;-62
2022/09/10 10:51:51;;;;;;;2.53;1.10;;;;;;;19.40;77.06;98603.56;4952958;28;104028;-62
2022/09/10 10:54:36;;;;;;;1.25;0.70;;;;;;;19.78;76.51;98594.81;4950543;28;104110;-62
2022/09/10 10:57:17;;;;;;;2.20;1.00;;;;;;;20.42;75.59;98587.56;4948570;28;103980;-62
2022/09/10 10:59:55;;;;;;;1.93;0.70;;;;;;;21.42;72.57;98581.19;4950091;28;103472;-62
2022/09/10 11:02:37;;;;;;;3.00;0.80;;;;;;;22.16;72.77;98575.69;4951668;28;102915;-63
2022/09/10 11:05:17;;;;;;;2.90;0.80;;;;;;;22.08;72.82;98570.41;4951285;28;103038;-62
2022/09/10 11:07:46;;;;;;;1.53;0.70;;;;;;;21.86;71.60;98568.63;4948381;28;103689;-63
2022/09/10 11:10:20;;;;;;;2.17;0.70;;;;;;;21.58;71.33;98575.63;4953819;28;102929;-62
2022/09/10 11:12:53;;;;;;;3.05;1.10;;;;;;;21.84;70.67;98571.47;4953887;28;102627;-63
2022/09/10 11:15:29;;;;;;;2.50;0.70;;;;;;;22.38;69.65;98569.34;4948651;28;104205;-63
2022/09/10 11:18:05;;;;;;;2.70;1.00;;;;;;;21.90;69.66;98575.31;4950067;28;103183;-62
2022/09/10 11:20:41;;;;;;;1.83;0.60;;;;;;;21.82;68.91;98572.69;4950734;28;102811;-63
2022/09/10 11:23:19;;;;;;;2.17;0.70;;;;;;;22.34;68.00;98568.03;4946308;28;102700;-63
2022/09/10 11:25:55;;;;;;;3.35;0.85;;;;;;;21.91;66.63;98569.75;4952664;28;103351;-63
2022/09/10 11:28:28;;;;;;;1.87;0.70;;;;;;;21.83;64.75;98566.31;4956129;28;103187;-65
2022/09/10 11:31:03;;;;;;;2.40;1.00;;;;;;;22.18;65.35;98560.19;4951629;28;102722;-65
2022/09/10 11:33:39;;;;;;;2.10;1.10;;;;;;;21.77;63.99;98561.66;4949541;28;102734;-65
2022/09/10 11:36:15;;;;;;;2.42;0.80;;;;;;;22.27;63.95;98555.53;4952138;28;104504;-65
2022/09/10 11:38:51;;;;;;;2.40;0.82;;;;;;;21.86;62.96;98560.56;4940097;28;103237;-65
2022/09/10 11:41:23;;;;;;;2.35;0.73;;;;;;;21.07;62.69;98562.00;4939374;28;104712;-65
2022/09/10 11:43:59;;;;;;;1.65;0.70;;;;;;;21.25;63.21;98558.97;4909879;28;103093;-65
2022/09/10 11:46:35;;;;;;;2.40;0.90;;;;;;;21.35;62.52;98560.41;4960364;28;103371;-65
2022/09/10 11:49:12;;;;;;;2.20;0.70;;;;;;;21.33;62.97;98561.59;4946587;28;103297;-65